sensor_id;sensor_type;location;lat;lon;timestamp;P1;durP1;ratioP1;P2;durP2;ratioP2
46719;SDS011;32452;51.382;-0.002;2022-08-03T00:02:17;20.63;;;4.43;;
46719;SDS011;32452;51.382;-0.002;2022-08-03T00:05:03;20.65;;;5.43;;
46719;SDS011;32452;51.382;-0.002;2022-08-03T00:07:48;14.93;;;4.47;;
46719;SDS011;32452;51.382;-0.002;2022-08-03T00:10:37;16.17;;;4.63;;
46719;SDS011;32452;51.382;-0.002;2022-08-03T00:13:23;16.52;;;4.50;;
46719;SDS011;32452;51.382;-0.002;2022-08-03T00:16:09;17.20;;;4.97;;
46719;SDS011;32452;51.382;-0.002;2022-08-03T00:18:55;21.70;;;4.97;;
46719;SDS011;32452;51.382;-0.002;2022-08-03T00:21:41;19.13;;;4.50;;
46719;SDS011;32452;51.382;-0.002;2022-08-03T00:24:26;14.23;;;4.50;;
46719;SDS011;32452;51.382;-0.002;2022-08-03T00:27:12;19.23;;;5.75;;
46719;SDS011;32452;51.382;-0.002;2022-08-03T00:30:00;17.58;;;4.80;;
46719;SDS011;32452;51.382;-0.002;2022-08-03T00:32:46;20.25;;;4.90;;
46719;SDS011;32452;51.382;-0.002;2022-08-03T00:35:32;15.93;;;4.50;;
46719;SDS011;32452;51.382;-0.002;2022-08-03T00:38:34;15.77;;;5.95;;
46719;SDS011;32452;51.382;-0.002;2022-08-03T00:41:19;13.95;;;4.95;;
46719;SDS011;32452;51.382;-0.002;2022-08-03T00:44:05;19.83;;;5.32;;
46719;SDS011;32452;51.382;-0.002;2022-08-03T00:46:51;16.00;;;4.35;;
46719;SDS011;32452;51.382;-0.002;2022-08-03T00:49:37;19.83;;;5.25;;
46719;SDS011;32452;51.382;-0.002;2022-08-03T00:52:24;17.48;;;4.88;;
46719;SDS011;32452;51.382;-0.002;2022-08-03T00:55:10;14.38;;;4.75;;
46719;SDS011;32452;51.382;-0.002;2022-08-03T00:57:56;19.67;;;5.95;;
46719;SDS011;32452;51.382;-0.002;2022-08-03T01:00:43;15.90;;;4.63;;
46719;SDS011;32452;51.382;-0.002;2022-08-03T01:03:28;16.45;;;5.30;;
46719;SDS011;32452;51.382;-0.002;2022-08-03T01:12:40;18.88;;;5.75;;
46719;SDS011;32452;51.382;-0.002;2022-08-03T01:21:51;20.67;;;6.55;;
46719;SDS011;32452;51.382;-0.002;2022-08-03T01:28:44;20.02;;;6.22;;
46719;SDS011;32452;51.382;-0.002;2022-08-03T01:31:47;21.30;;;7.60;;
46719;SDS011;32452;51.382;-0.002;2022-08-03T01:35:12;18.27;;;8.25;;
46719;SDS011;32452;51.382;-0.002;2022-08-03T01:38:09;20.30;;;8.15;;
46719;SDS011;32452;51.382;-0.002;2022-08-03T01:41:00;19.20;;;8.73;;
46719;SDS011;32452;51.382;-0.002;2022-08-03T01:44:00;16.92;;;8.13;;
46719;SDS011;32452;51.382;-0.002;2022-08-03T01:47:07;21.77;;;9.50;;
46719;SDS011;32452;51.382;-0.002;2022-08-03T01:49:54;29.30;;;10.82;;
46719;SDS011;32452;51.382;-0.002;2022-08-03T01:52:41;20.52;;;9.68;;
46719;SDS011;32452;51.382;-0.002;2022-08-03T01:55:29;22.25;;;9.63;;
46719;SDS011;32452;51.382;-0.002;2022-08-03T01:58:17;24.92;;;10.07;;
46719;SDS011;32452;51.382;-0.002;2022-08-03T02:01:05;28.50;;;11.45;;
46719;SDS011;32452;51.382;-0.002;2022-08-03T02:03:52;23.45;;;12.20;;
46719;SDS011;32452;51.382;-0.002;2022-08-03T02:06:45;27.88;;;12.40;;
46719;SDS011;32452;51.382;-0.002;2022-08-03T02:09:48;17.30;;;10.93;;
46719;SDS011;32452;51.382;-0.002;2022-08-03T02:12:36;28.58;;;11.80;;
46719;SDS011;32452;51.382;-0.002;2022-08-03T02:15:23;24.52;;;11.57;;
46719;SDS011;32452;51.382;-0.002;2022-08-03T02:18:10;25.10;;;12.07;;
46719;SDS011;32452;51.382;-0.002;2022-08-03T02:21:01;24.92;;;11.95;;
46719;SDS011;32452;51.382;-0.002;2022-08-03T02:23:54;24.38;;;12.18;;
46719;SDS011;32452;51.382;-0.002;2022-08-03T02:26:40;20.77;;;10.23;;
46719;SDS011;32452;51.382;-0.002;2022-08-03T02:29:28;19.60;;;10.85;;
46719;SDS011;32452;51.382;-0.002;2022-08-03T02:32:30;19.30;;;10.40;;
46719;SDS011;32452;51.382;-0.002;2022-08-03T02:35:19;19.33;;;9.32;;
46719;SDS011;32452;51.382;-0.002;2022-08-03T02:38:08;25.42;;;9.50;;
46719;SDS011;32452;51.382;-0.002;2022-08-03T02:40:54;20.38;;;8.70;;
46719;SDS011;32452;51.382;-0.002;2022-08-03T02:43:44;21.25;;;8.75;;
46719;SDS011;32452;51.382;-0.002;2022-08-03T02:46:52;18.40;;;7.53;;
46719;SDS011;32452;51.382;-0.002;2022-08-03T02:49:40;16.27;;;7.22;;
46719;SDS011;32452;51.382;-0.002;2022-08-03T02:52:36;17.80;;;6.88;;
46719;SDS011;32452;51.382;-0.002;2022-08-03T02:55:23;14.98;;;5.53;;
46719;SDS011;32452;51.382;-0.002;2022-08-03T02:58:10;17.10;;;7.13;;
46719;SDS011;32452;51.382;-0.002;2022-08-03T03:00:58;17.15;;;5.55;;
46719;SDS011;32452;51.382;-0.002;2022-08-03T03:03:45;16.17;;;5.43;;
46719;SDS011;32452;51.382;-0.002;2022-08-03T03:06:32;19.67;;;7.05;;
46719;SDS011;32452;51.382;-0.002;2022-08-03T03:09:20;16.88;;;6.10;;
46719;SDS011;32452;51.382;-0.002;2022-08-03T03:12:07;14.80;;;5.40;;
46719;SDS011;32452;51.382;-0.002;2022-08-03T03:14:53;16.27;;;5.90;;
46719;SDS011;32452;51.382;-0.002;2022-08-03T03:17:39;13.68;;;5.88;;
46719;SDS011;32452;51.382;-0.002;2022-08-03T03:20:26;13.70;;;5.68;;
46719;SDS011;32452;51.382;-0.002;2022-08-03T03:23:14;14.73;;;6.10;;
46719;SDS011;32452;51.382;-0.002;2022-08-03T03:26:00;19.65;;;7.30;;
46719;SDS011;32452;51.382;-0.002;2022-08-03T03:28:46;16.38;;;6.97;;
46719;SDS011;32452;51.382;-0.002;2022-08-03T03:31:32;14.07;;;7.82;;
46719;SDS011;32452;51.382;-0.002;2022-08-03T03:34:19;21.15;;;7.90;;
46719;SDS011;32452;51.382;-0.002;2022-08-03T03:37:05;22.33;;;8.05;;
46719;SDS011;32452;51.382;-0.002;2022-08-03T03:39:52;18.98;;;7.90;;
46719;SDS011;32452;51.382;-0.002;2022-08-03T03:42:38;21.23;;;7.68;;
46719;SDS011;32452;51.382;-0.002;2022-08-03T03:45:24;21.80;;;8.10;;
46719;SDS011;32452;51.382;-0.002;2022-08-03T03:48:11;16.70;;;8.18;;
46719;SDS011;32452;51.382;-0.002;2022-08-03T03:50:56;20.25;;;8.90;;
46719;SDS011;32452;51.382;-0.002;2022-08-03T03:53:58;19.30;;;8.77;;
46719;SDS011;32452;51.382;-0.002;2022-08-03T03:56:45;16.45;;;7.10;;
46719;SDS011;32452;51.382;-0.002;2022-08-03T03:59:31;18.80;;;7.93;;
46719;SDS011;32452;51.382;-0.002;2022-08-03T04:02:19;16.77;;;7.85;;
46719;SDS011;32452;51.382;-0.002;2022-08-03T04:05:05;13.80;;;7.13;;
46719;SDS011;32452;51.382;-0.002;2022-08-03T04:08:14;14.15;;;6.45;;
46719;SDS011;32452;51.382;-0.002;2022-08-03T04:14:18;20.05;;;6.50;;
46719;SDS011;32452;51.382;-0.002;2022-08-03T04:17:09;19.50;;;6.97;;
46719;SDS011;32452;51.382;-0.002;2022-08-03T04:19:57;15.82;;;7.57;;
46719;SDS011;32452;51.382;-0.002;2022-08-03T04:22:44;21.88;;;7.85;;
46719;SDS011;32452;51.382;-0.002;2022-08-03T04:25:34;15.18;;;6.88;;
46719;SDS011;32452;51.382;-0.002;2022-08-03T04:28:24;16.35;;;7.85;;
46719;SDS011;32452;51.382;-0.002;2022-08-03T04:31:16;14.65;;;7.78;;
46719;SDS011;32452;51.382;-0.002;2022-08-03T04:34:04;15.10;;;7.75;;
46719;SDS011;32452;51.382;-0.002;2022-08-03T04:36:51;23.85;;;8.63;;
46719;SDS011;32452;51.382;-0.002;2022-08-03T04:39:41;18.20;;;8.70;;
46719;SDS011;32452;51.382;-0.002;2022-08-03T04:42:28;19.52;;;8.35;;
46719;SDS011;32452;51.382;-0.002;2022-08-03T04:45:15;18.13;;;7.88;;
46719;SDS011;32452;51.382;-0.002;2022-08-03T04:48:02;16.85;;;7.47;;
46719;SDS011;32452;51.382;-0.002;2022-08-03T04:50:49;21.55;;;9.05;;
46719;SDS011;32452;51.382;-0.002;2022-08-03T04:53:34;18.70;;;8.95;;
46719;SDS011;32452;51.382;-0.002;2022-08-03T04:56:21;18.95;;;9.20;;
46719;SDS011;32452;51.382;-0.002;2022-08-03T04:59:07;19.80;;;9.15;;
46719;SDS011;32452;51.382;-0.002;2022-08-03T05:01:53;23.40;;;10.05;;
46719;SDS011;32452;51.382;-0.002;2022-08-03T05:04:41;21.52;;;10.68;;
46719;SDS011;32452;51.382;-0.002;2022-08-03T05:07:30;20.98;;;10.18;;
46719;SDS011;32452;51.382;-0.002;2022-08-03T05:10:19;21.13;;;11.05;;
46719;SDS011;32452;51.382;-0.002;2022-08-03T05:13:04;15.93;;;9.98;;
46719;SDS011;32452;51.382;-0.002;2022-08-03T05:15:50;19.27;;;11.20;;
46719;SDS011;32452;51.382;-0.002;2022-08-03T05:18:36;21.63;;;11.40;;
46719;SDS011;32452;51.382;-0.002;2022-08-03T05:21:22;16.23;;;9.43;;
46719;SDS011;32452;51.382;-0.002;2022-08-03T05:24:08;22.83;;;9.55;;
46719;SDS011;32452;51.382;-0.002;2022-08-03T05:26:53;16.65;;;9.15;;
46719;SDS011;32452;51.382;-0.002;2022-08-03T05:29:39;17.85;;;8.35;;
46719;SDS011;32452;51.382;-0.002;2022-08-03T05:32:24;18.33;;;8.90;;
46719;SDS011;32452;51.382;-0.002;2022-08-03T05:35:10;20.98;;;9.18;;
46719;SDS011;32452;51.382;-0.002;2022-08-03T05:38:15;14.80;;;7.95;;
46719;SDS011;32452;51.382;-0.002;2022-08-03T05:41:12;17.08;;;8.43;;
46719;SDS011;32452;51.382;-0.002;2022-08-03T05:44:07;15.30;;;7.88;;
46719;SDS011;32452;51.382;-0.002;2022-08-03T05:46:53;18.65;;;7.60;;
46719;SDS011;32452;51.382;-0.002;2022-08-03T05:49:39;17.45;;;8.18;;
46719;SDS011;32452;51.382;-0.002;2022-08-03T05:52:24;18.65;;;8.50;;
46719;SDS011;32452;51.382;-0.002;2022-08-03T05:55:11;15.25;;;7.93;;
46719;SDS011;32452;51.382;-0.002;2022-08-03T05:57:57;16.00;;;8.15;;
46719;SDS011;32452;51.382;-0.002;2022-08-03T06:00:43;14.13;;;7.75;;
46719;SDS011;32452;51.382;-0.002;2022-08-03T06:03:28;17.55;;;8.00;;
46719;SDS011;32452;51.382;-0.002;2022-08-03T06:06:14;18.25;;;8.32;;
46719;SDS011;32452;51.382;-0.002;2022-08-03T06:09:00;18.35;;;8.50;;
46719;SDS011;32452;51.382;-0.002;2022-08-03T06:11:46;15.10;;;7.85;;
46719;SDS011;32452;51.382;-0.002;2022-08-03T06:14:31;14.15;;;7.82;;
46719;SDS011;32452;51.382;-0.002;2022-08-03T06:17:17;14.63;;;7.53;;
46719;SDS011;32452;51.382;-0.002;2022-08-03T06:20:03;13.18;;;6.25;;
46719;SDS011;32452;51.382;-0.002;2022-08-03T06:22:49;15.57;;;6.97;;
46719;SDS011;32452;51.382;-0.002;2022-08-03T06:25:45;9.32;;;5.45;;
46719;SDS011;32452;51.382;-0.002;2022-08-03T06:28:31;14.05;;;4.93;;
46719;SDS011;32452;51.382;-0.002;2022-08-03T06:31:37;11.02;;;4.22;;
46719;SDS011;32452;51.382;-0.002;2022-08-03T06:34:24;13.15;;;5.38;;
46719;SDS011;32452;51.382;-0.002;2022-08-03T06:37:19;13.07;;;4.72;;
46719;SDS011;32452;51.382;-0.002;2022-08-03T06:40:04;12.18;;;4.63;;
46719;SDS011;32452;51.382;-0.002;2022-08-03T06:42:50;9.25;;;4.32;;
46719;SDS011;32452;51.382;-0.002;2022-08-03T06:45:36;11.18;;;3.47;;
46719;SDS011;32452;51.382;-0.002;2022-08-03T06:48:22;11.18;;;4.20;;
46719;SDS011;32452;51.382;-0.002;2022-08-03T06:51:07;8.82;;;3.45;;
46719;SDS011;32452;51.382;-0.002;2022-08-03T06:53:53;11.23;;;3.70;;
46719;SDS011;32452;51.382;-0.002;2022-08-03T06:56:38;10.93;;;3.25;;
46719;SDS011;32452;51.382;-0.002;2022-08-03T06:59:24;11.93;;;2.90;;
46719;SDS011;32452;51.382;-0.002;2022-08-03T07:02:29;9.63;;;3.65;;
46719;SDS011;32452;51.382;-0.002;2022-08-03T07:05:15;6.65;;;2.67;;
46719;SDS011;32452;51.382;-0.002;2022-08-03T07:08:00;6.47;;;2.30;;
46719;SDS011;32452;51.382;-0.002;2022-08-03T07:10:46;9.68;;;3.88;;
46719;SDS011;32452;51.382;-0.002;2022-08-03T07:13:32;8.60;;;2.80;;
46719;SDS011;32452;51.382;-0.002;2022-08-03T07:16:17;7.88;;;3.38;;
46719;SDS011;32452;51.382;-0.002;2022-08-03T07:19:03;8.02;;;3.90;;
46719;SDS011;32452;51.382;-0.002;2022-08-03T07:21:49;8.25;;;2.95;;
46719;SDS011;32452;51.382;-0.002;2022-08-03T07:24:37;6.82;;;2.70;;
46719;SDS011;32452;51.382;-0.002;2022-08-03T07:27:23;8.43;;;2.90;;
46719;SDS011;32452;51.382;-0.002;2022-08-03T07:30:10;6.38;;;3.15;;
46719;SDS011;32452;51.382;-0.002;2022-08-03T07:32:56;8.98;;;3.67;;
46719;SDS011;32452;51.382;-0.002;2022-08-03T07:35:42;7.75;;;3.38;;
46719;SDS011;32452;51.382;-0.002;2022-08-03T07:38:28;8.55;;;3.90;;
46719;SDS011;32452;51.382;-0.002;2022-08-03T07:41:13;9.30;;;3.88;;
46719;SDS011;32452;51.382;-0.002;2022-08-03T07:43:59;9.52;;;4.03;;
46719;SDS011;32452;51.382;-0.002;2022-08-03T07:46:44;7.88;;;3.92;;
46719;SDS011;32452;51.382;-0.002;2022-08-03T07:49:30;6.60;;;3.58;;
46719;SDS011;32452;51.382;-0.002;2022-08-03T07:52:16;7.30;;;3.05;;
46719;SDS011;32452;51.382;-0.002;2022-08-03T07:55:21;4.82;;;3.03;;
46719;SDS011;32452;51.382;-0.002;2022-08-03T07:58:11;6.45;;;2.83;;
46719;SDS011;32452;51.382;-0.002;2022-08-03T08:01:06;8.70;;;3.72;;
46719;SDS011;32452;51.382;-0.002;2022-08-03T08:03:53;3.03;;;2.50;;
46719;SDS011;32452;51.382;-0.002;2022-08-03T08:06:39;2.70;;;1.98;;
46719;SDS011;32452;51.382;-0.002;2022-08-03T08:09:25;4.47;;;2.72;;
46719;SDS011;32452;51.382;-0.002;2022-08-03T08:12:12;5.15;;;2.35;;
46719;SDS011;32452;51.382;-0.002;2022-08-03T08:14:59;4.40;;;2.00;;
46719;SDS011;32452;51.382;-0.002;2022-08-03T08:17:49;4.25;;;2.20;;
46719;SDS011;32452;51.382;-0.002;2022-08-03T08:20:36;4.28;;;1.65;;
46719;SDS011;32452;51.382;-0.002;2022-08-03T08:23:24;3.38;;;1.45;;
46719;SDS011;32452;51.382;-0.002;2022-08-03T08:26:27;4.03;;;1.65;;
46719;SDS011;32452;51.382;-0.002;2022-08-03T08:29:13;3.83;;;1.83;;
46719;SDS011;32452;51.382;-0.002;2022-08-03T08:31:58;3.50;;;1.60;;
46719;SDS011;32452;51.382;-0.002;2022-08-03T08:34:44;2.42;;;1.30;;
46719;SDS011;32452;51.382;-0.002;2022-08-03T08:37:29;5.90;;;1.88;;
46719;SDS011;32452;51.382;-0.002;2022-08-03T08:40:15;3.42;;;1.20;;
46719;SDS011;32452;51.382;-0.002;2022-08-03T08:43:01;1.85;;;1.08;;
46719;SDS011;32452;51.382;-0.002;2022-08-03T08:45:49;3.17;;;1.10;;
46719;SDS011;32452;51.382;-0.002;2022-08-03T08:48:39;2.42;;;0.95;;
46719;SDS011;32452;51.382;-0.002;2022-08-03T08:51:29;3.42;;;1.30;;
46719;SDS011;32452;51.382;-0.002;2022-08-03T08:54:37;1.75;;;1.30;;
46719;SDS011;32452;51.382;-0.002;2022-08-03T08:57:29;2.85;;;1.25;;
46719;SDS011;32452;51.382;-0.002;2022-08-03T09:00:27;1.63;;;1.02;;
46719;SDS011;32452;51.382;-0.002;2022-08-03T09:03:15;2.30;;;1.00;;
46719;SDS011;32452;51.382;-0.002;2022-08-03T09:06:14;7.25;;;1.45;;
46719;SDS011;32452;51.382;-0.002;2022-08-03T09:09:00;1.05;;;1.00;;
46719;SDS011;32452;51.382;-0.002;2022-08-03T09:11:46;2.33;;;1.10;;
46719;SDS011;32452;51.382;-0.002;2022-08-03T09:17:54;6.38;;;2.38;;
46719;SDS011;32452;51.382;-0.002;2022-08-03T09:20:41;2.58;;;0.85;;
46719;SDS011;32452;51.382;-0.002;2022-08-03T09:23:29;1.88;;;1.00;;
46719;SDS011;32452;51.382;-0.002;2022-08-03T09:26:49;1.70;;;1.60;;
46719;SDS011;32452;51.382;-0.002;2022-08-03T09:29:37;2.35;;;1.60;;
46719;SDS011;32452;51.382;-0.002;2022-08-03T09:32:23;3.40;;;1.60;;
46719;SDS011;32452;51.382;-0.002;2022-08-03T09:35:09;6.13;;;1.65;;
46719;SDS011;32452;51.382;-0.002;2022-08-03T09:41:20;3.15;;;1.67;;
46719;SDS011;32452;51.382;-0.002;2022-08-03T09:44:06;5.38;;;1.95;;
46719;SDS011;32452;51.382;-0.002;2022-08-03T09:47:08;5.22;;;1.95;;
46719;SDS011;32452;51.382;-0.002;2022-08-03T09:49:59;3.67;;;2.03;;
46719;SDS011;32452;51.382;-0.002;2022-08-03T09:52:46;4.80;;;2.13;;
46719;SDS011;32452;51.382;-0.002;2022-08-03T09:55:36;3.78;;;2.30;;
46719;SDS011;32452;51.382;-0.002;2022-08-03T09:58:45;3.65;;;1.65;;
46719;SDS011;32452;51.382;-0.002;2022-08-03T10:01:32;5.47;;;1.98;;
46719;SDS011;32452;51.382;-0.002;2022-08-03T10:04:21;2.42;;;1.60;;
46719;SDS011;32452;51.382;-0.002;2022-08-03T10:07:08;4.53;;;1.55;;
46719;SDS011;32452;51.382;-0.002;2022-08-03T10:09:56;5.30;;;1.33;;
46719;SDS011;32452;51.382;-0.002;2022-08-03T10:13:02;4.07;;;1.10;;
46719;SDS011;32452;51.382;-0.002;2022-08-03T10:15:49;6.28;;;1.80;;
46719;SDS011;32452;51.382;-0.002;2022-08-03T10:18:55;7.00;;;1.48;;
46719;SDS011;32452;51.382;-0.002;2022-08-03T10:21:42;3.22;;;1.80;;
46719;SDS011;32452;51.382;-0.002;2022-08-03T10:24:33;6.15;;;1.45;;
46719;SDS011;32452;51.382;-0.002;2022-08-03T10:27:23;4.00;;;1.40;;
46719;SDS011;32452;51.382;-0.002;2022-08-03T10:30:09;3.13;;;1.35;;
46719;SDS011;32452;51.382;-0.002;2022-08-03T10:32:57;4.20;;;1.30;;
46719;SDS011;32452;51.382;-0.002;2022-08-03T10:36:17;3.03;;;1.00;;
46719;SDS011;32452;51.382;-0.002;2022-08-03T10:39:05;4.80;;;1.23;;
46719;SDS011;32452;51.382;-0.002;2022-08-03T10:42:00;3.38;;;1.20;;
46719;SDS011;32452;51.382;-0.002;2022-08-03T10:44:51;4.93;;;1.38;;
46719;SDS011;32452;51.382;-0.002;2022-08-03T10:47:46;2.75;;;1.10;;
46719;SDS011;32452;51.382;-0.002;2022-08-03T10:50:33;5.53;;;1.23;;
46719;SDS011;32452;51.382;-0.002;2022-08-03T10:54:02;4.88;;;1.30;;
46719;SDS011;32452;51.382;-0.002;2022-08-03T10:56:39;4.43;;;1.52;;
46719;SDS011;32452;51.382;-0.002;2022-08-03T10:59:57;5.70;;;1.42;;
46719;SDS011;32452;51.382;-0.002;2022-08-03T11:03:00;4.47;;;1.40;;
46719;SDS011;32452;51.382;-0.002;2022-08-03T11:06:31;7.60;;;1.90;;
46719;SDS011;32452;51.382;-0.002;2022-08-03T11:12:00;5.15;;;1.50;;
46719;SDS011;32452;51.382;-0.002;2022-08-03T11:15:15;8.13;;;1.55;;
46719;SDS011;32452;51.382;-0.002;2022-08-03T11:18:17;3.80;;;1.27;;
46719;SDS011;32452;51.382;-0.002;2022-08-03T11:21:02;4.32;;;1.30;;
46719;SDS011;32452;51.382;-0.002;2022-08-03T11:23:49;6.10;;;1.63;;
46719;SDS011;32452;51.382;-0.002;2022-08-03T11:27:12;5.03;;;1.65;;
46719;SDS011;32452;51.382;-0.002;2022-08-03T11:30:22;2.20;;;0.93;;
46719;SDS011;32452;51.382;-0.002;2022-08-03T11:33:24;4.07;;;1.20;;
46719;SDS011;32452;51.382;-0.002;2022-08-03T11:36:14;7.03;;;1.70;;
46719;SDS011;32452;51.382;-0.002;2022-08-03T11:39:16;5.40;;;1.67;;
46719;SDS011;32452;51.382;-0.002;2022-08-03T11:42:36;5.80;;;1.83;;
46719;SDS011;32452;51.382;-0.002;2022-08-03T11:45:08;8.68;;;2.10;;
46719;SDS011;32452;51.382;-0.002;2022-08-03T11:47:54;6.15;;;1.70;;
46719;SDS011;32452;51.382;-0.002;2022-08-03T11:50:40;8.40;;;2.38;;
46719;SDS011;32452;51.382;-0.002;2022-08-03T11:53:29;5.97;;;1.92;;
46719;SDS011;32452;51.382;-0.002;2022-08-03T11:56:14;4.20;;;1.48;;
46719;SDS011;32452;51.382;-0.002;2022-08-03T11:59:00;7.18;;;1.63;;
46719;SDS011;32452;51.382;-0.002;2022-08-03T12:02:05;5.80;;;1.55;;
46719;SDS011;32452;51.382;-0.002;2022-08-03T12:07:38;3.80;;;1.50;;
46719;SDS011;32452;51.382;-0.002;2022-08-03T12:10:49;5.95;;;1.60;;
46719;SDS011;32452;51.382;-0.002;2022-08-03T12:13:39;6.85;;;1.50;;
46719;SDS011;32452;51.382;-0.002;2022-08-03T12:16:46;7.03;;;1.33;;
46719;SDS011;32452;51.382;-0.002;2022-08-03T12:19:42;3.20;;;1.10;;
46719;SDS011;32452;51.382;-0.002;2022-08-03T12:22:38;4.50;;;1.25;;
46719;SDS011;32452;51.382;-0.002;2022-08-03T12:25:25;2.50;;;1.02;;
46719;SDS011;32452;51.382;-0.002;2022-08-03T12:28:23;3.42;;;1.30;;
46719;SDS011;32452;51.382;-0.002;2022-08-03T12:31:22;4.03;;;0.98;;
46719;SDS011;32452;51.382;-0.002;2022-08-03T12:34:07;3.70;;;1.45;;
46719;SDS011;32452;51.382;-0.002;2022-08-03T12:36:54;6.55;;;1.20;;
46719;SDS011;32452;51.382;-0.002;2022-08-03T12:39:40;4.82;;;1.85;;
46719;SDS011;32452;51.382;-0.002;2022-08-03T12:42:46;7.25;;;2.10;;
46719;SDS011;32452;51.382;-0.002;2022-08-03T12:45:31;4.88;;;1.52;;
46719;SDS011;32452;51.382;-0.002;2022-08-03T12:48:18;5.30;;;1.40;;
46719;SDS011;32452;51.382;-0.002;2022-08-03T12:51:10;5.47;;;1.92;;
46719;SDS011;32452;51.382;-0.002;2022-08-03T12:53:56;5.85;;;1.48;;
46719;SDS011;32452;51.382;-0.002;2022-08-03T12:59:48;4.90;;;1.80;;
46719;SDS011;32452;51.382;-0.002;2022-08-03T13:02:37;3.40;;;1.17;;
46719;SDS011;32452;51.382;-0.002;2022-08-03T13:05:30;8.07;;;1.98;;
46719;SDS011;32452;51.382;-0.002;2022-08-03T13:08:20;6.13;;;1.20;;
46719;SDS011;32452;51.382;-0.002;2022-08-03T13:11:26;4.00;;;1.35;;
46719;SDS011;32452;51.382;-0.002;2022-08-03T13:14:31;9.07;;;1.42;;
46719;SDS011;32452;51.382;-0.002;2022-08-03T13:17:17;6.35;;;1.38;;
46719;SDS011;32452;51.382;-0.002;2022-08-03T13:20:03;5.68;;;1.23;;
46719;SDS011;32452;51.382;-0.002;2022-08-03T13:22:49;6.05;;;1.45;;
46719;SDS011;32452;51.382;-0.002;2022-08-03T13:25:35;5.43;;;1.65;;
46719;SDS011;32452;51.382;-0.002;2022-08-03T13:28:39;6.10;;;1.17;;
46719;SDS011;32452;51.382;-0.002;2022-08-03T13:31:24;8.00;;;2.20;;
46719;SDS011;32452;51.382;-0.002;2022-08-03T13:34:10;4.30;;;1.33;;
46719;SDS011;32452;51.382;-0.002;2022-08-03T13:36:56;8.68;;;1.73;;
46719;SDS011;32452;51.382;-0.002;2022-08-03T13:40:02;6.53;;;1.30;;
46719;SDS011;32452;51.382;-0.002;2022-08-03T13:42:50;7.15;;;1.67;;
46719;SDS011;32452;51.382;-0.002;2022-08-03T13:45:37;6.38;;;1.40;;
46719;SDS011;32452;51.382;-0.002;2022-08-03T13:48:23;6.38;;;1.40;;
46719;SDS011;32452;51.382;-0.002;2022-08-03T13:51:21;9.15;;;1.83;;
46719;SDS011;32452;51.382;-0.002;2022-08-03T13:54:07;7.03;;;1.40;;
46719;SDS011;32452;51.382;-0.002;2022-08-03T13:56:52;5.72;;;1.83;;
46719;SDS011;32452;51.382;-0.002;2022-08-03T13:59:58;5.80;;;1.63;;
46719;SDS011;32452;51.382;-0.002;2022-08-03T14:02:44;6.57;;;1.30;;
46719;SDS011;32452;51.382;-0.002;2022-08-03T14:05:29;8.48;;;1.50;;
46719;SDS011;32452;51.382;-0.002;2022-08-03T14:08:16;5.03;;;1.15;;
46719;SDS011;32452;51.382;-0.002;2022-08-03T14:11:02;7.97;;;1.60;;
46719;SDS011;32452;51.382;-0.002;2022-08-03T14:13:47;5.28;;;1.42;;
46719;SDS011;32452;51.382;-0.002;2022-08-03T14:16:34;5.90;;;1.60;;
46719;SDS011;32452;51.382;-0.002;2022-08-03T14:19:20;5.03;;;1.45;;
46719;SDS011;32452;51.382;-0.002;2022-08-03T14:22:09;7.07;;;1.50;;
46719;SDS011;32452;51.382;-0.002;2022-08-03T14:24:55;3.63;;;1.30;;
46719;SDS011;32452;51.382;-0.002;2022-08-03T14:27:41;4.03;;;1.00;;
46719;SDS011;32452;51.382;-0.002;2022-08-03T14:30:27;8.80;;;2.28;;
46719;SDS011;32452;51.382;-0.002;2022-08-03T14:33:14;4.93;;;1.70;;
46719;SDS011;32452;51.382;-0.002;2022-08-03T14:35:59;6.75;;;1.80;;
46719;SDS011;32452;51.382;-0.002;2022-08-03T14:38:45;4.28;;;1.30;;
46719;SDS011;32452;51.382;-0.002;2022-08-03T14:41:30;4.00;;;1.23;;
46719;SDS011;32452;51.382;-0.002;2022-08-03T14:44:16;6.53;;;1.73;;
46719;SDS011;32452;51.382;-0.002;2022-08-03T14:47:01;4.68;;;1.20;;
46719;SDS011;32452;51.382;-0.002;2022-08-03T14:49:47;10.52;;;1.50;;
46719;SDS011;32452;51.382;-0.002;2022-08-03T14:52:52;6.53;;;1.50;;
46719;SDS011;32452;51.382;-0.002;2022-08-03T14:55:38;6.25;;;1.42;;
46719;SDS011;32452;51.382;-0.002;2022-08-03T14:58:35;7.93;;;1.63;;
46719;SDS011;32452;51.382;-0.002;2022-08-03T15:01:20;6.25;;;1.25;;
46719;SDS011;32452;51.382;-0.002;2022-08-03T15:04:26;6.03;;;1.42;;
46719;SDS011;32452;51.382;-0.002;2022-08-03T15:07:12;5.72;;;1.17;;
46719;SDS011;32452;51.382;-0.002;2022-08-03T15:09:57;5.10;;;1.50;;
46719;SDS011;32452;51.382;-0.002;2022-08-03T15:12:46;9.20;;;1.70;;
46719;SDS011;32452;51.382;-0.002;2022-08-03T15:15:32;2.75;;;0.88;;
46719;SDS011;32452;51.382;-0.002;2022-08-03T15:18:17;3.78;;;1.27;;
46719;SDS011;32452;51.382;-0.002;2022-08-03T15:21:03;3.97;;;1.27;;
46719;SDS011;32452;51.382;-0.002;2022-08-03T15:24:00;5.07;;;1.08;;
46719;SDS011;32452;51.382;-0.002;2022-08-03T15:26:46;3.40;;;1.10;;
46719;SDS011;32452;51.382;-0.002;2022-08-03T15:29:31;10.95;;;1.55;;
46719;SDS011;32452;51.382;-0.002;2022-08-03T15:32:37;5.15;;;1.65;;
46719;SDS011;32452;51.382;-0.002;2022-08-03T15:35:22;3.35;;;1.05;;
46719;SDS011;32452;51.382;-0.002;2022-08-03T15:38:08;8.15;;;1.63;;
46719;SDS011;32452;51.382;-0.002;2022-08-03T15:40:53;3.63;;;1.00;;
46719;SDS011;32452;51.382;-0.002;2022-08-03T15:43:40;5.00;;;1.10;;
46719;SDS011;32452;51.382;-0.002;2022-08-03T15:46:31;3.45;;;1.23;;
46719;SDS011;32452;51.382;-0.002;2022-08-03T15:49:17;2.53;;;1.10;;
46719;SDS011;32452;51.382;-0.002;2022-08-03T15:52:04;2.83;;;1.10;;
46719;SDS011;32452;51.382;-0.002;2022-08-03T15:54:50;2.50;;;0.80;;
46719;SDS011;32452;51.382;-0.002;2022-08-03T15:57:35;4.45;;;1.20;;
46719;SDS011;32452;51.382;-0.002;2022-08-03T16:00:41;3.20;;;0.93;;
46719;SDS011;32452;51.382;-0.002;2022-08-03T16:03:27;4.00;;;1.20;;
46719;SDS011;32452;51.382;-0.002;2022-08-03T16:06:18;3.47;;;1.08;;
46719;SDS011;32452;51.382;-0.002;2022-08-03T16:09:19;3.55;;;1.02;;
46719;SDS011;32452;51.382;-0.002;2022-08-03T16:12:25;2.25;;;1.00;;
46719;SDS011;32452;51.382;-0.002;2022-08-03T16:15:11;6.32;;;1.23;;
46719;SDS011;32452;51.382;-0.002;2022-08-03T16:17:57;5.70;;;1.52;;
46719;SDS011;32452;51.382;-0.002;2022-08-03T16:20:43;3.30;;;1.10;;
46719;SDS011;32452;51.382;-0.002;2022-08-03T16:23:29;6.00;;;1.20;;
46719;SDS011;32452;51.382;-0.002;2022-08-03T16:26:17;2.00;;;0.80;;
46719;SDS011;32452;51.382;-0.002;2022-08-03T16:29:03;2.65;;;0.90;;
46719;SDS011;32452;51.382;-0.002;2022-08-03T16:32:06;2.83;;;0.80;;
46719;SDS011;32452;51.382;-0.002;2022-08-03T16:34:53;5.80;;;1.77;;
46719;SDS011;32452;51.382;-0.002;2022-08-03T16:37:39;5.53;;;0.90;;
46719;SDS011;32452;51.382;-0.002;2022-08-03T16:40:41;1.55;;;0.85;;
46719;SDS011;32452;51.382;-0.002;2022-08-03T16:43:29;1.92;;;0.80;;
46719;SDS011;32452;51.382;-0.002;2022-08-03T16:46:22;2.92;;;1.10;;
46719;SDS011;32452;51.382;-0.002;2022-08-03T16:49:08;2.78;;;1.05;;
46719;SDS011;32452;51.382;-0.002;2022-08-03T16:51:53;2.63;;;0.70;;
46719;SDS011;32452;51.382;-0.002;2022-08-03T16:54:39;2.88;;;0.70;;
46719;SDS011;32452;51.382;-0.002;2022-08-03T16:57:24;3.00;;;1.00;;
46719;SDS011;32452;51.382;-0.002;2022-08-03T17:00:30;4.72;;;1.08;;
46719;SDS011;32452;51.382;-0.002;2022-08-03T17:03:25;1.73;;;0.73;;
46719;SDS011;32452;51.382;-0.002;2022-08-03T17:06:26;5.47;;;1.20;;
46719;SDS011;32452;51.382;-0.002;2022-08-03T17:09:18;3.28;;;0.93;;
46719;SDS011;32452;51.382;-0.002;2022-08-03T17:12:04;2.88;;;1.15;;
46719;SDS011;32452;51.382;-0.002;2022-08-03T17:14:54;3.53;;;0.73;;
46719;SDS011;32452;51.382;-0.002;2022-08-03T17:17:42;2.05;;;0.75;;
46719;SDS011;32452;51.382;-0.002;2022-08-03T17:20:40;3.40;;;1.55;;